Adams, Minnesota
Current Conditions -  °F | °C
As of 3:15 AM on Thursday 23 Oct 2014 (Local Time) from KAUM Reporting Station
Overcast Overcast  
Wind Chill: 11°   Ceiling: 11000
Heat Index: 11°   Visibility: 10mi
Dew Point:   Wind: 12mph
Humidity: 71%   Direction: 180°S
Pressure: 30.05"   Gusts: NA
Location:  43.57°N, 92.72°W
Report Text: KAUM 230815Z AUTO 18010KT 10SM SCT080 OVC110 11/06 A3005 RMK AO2
Loading
Personal Weather Stations






























Interactive Weather Map
Tropical Storm Tracking
New forecast layout! Learn more

10-Day Weather Forecast

Advertisements
Track Severe Weather on mobile